sensor_id;sensor_type;location;lat;lon;timestamp;P1;durP1;ratioP1;P2;durP2;ratioP2
20497;SDS011;10407;53.238;10.448;2023-04-29T00:01:36;84.50;;;14.47;;
20497;SDS011;10407;53.238;10.448;2023-04-29T00:04:04;87.50;;;13.50;;
20497;SDS011;10407;53.238;10.448;2023-04-29T00:06:31;89.80;;;16.23;;
20497;SDS011;10407;53.238;10.448;2023-04-29T00:08:59;85.90;;;12.77;;
20497;SDS011;10407;53.238;10.448;2023-04-29T00:11:27;85.60;;;13.47;;
20497;SDS011;10407;53.238;10.448;2023-04-29T00:13:54;83.70;;;12.83;;
20497;SDS011;10407;53.238;10.448;2023-04-29T00:16:22;83.70;;;12.33;;
20497;SDS011;10407;53.238;10.448;2023-04-29T00:18:50;83.70;;;13.20;;
20497;SDS011;10407;53.238;10.448;2023-04-29T00:21:17;87.60;;;14.43;;
20497;SDS011;10407;53.238;10.448;2023-04-29T00:23:45;84.80;;;13.67;;
20497;SDS011;10407;53.238;10.448;2023-04-29T00:26:13;85.03;;;14.97;;
20497;SDS011;10407;53.238;10.448;2023-04-29T00:28:40;85.10;;;13.43;;
20497;SDS011;10407;53.238;10.448;2023-04-29T00:31:08;83.23;;;13.03;;
20497;SDS011;10407;53.238;10.448;2023-04-29T00:33:35;89.10;;;13.90;;
20497;SDS011;10407;53.238;10.448;2023-04-29T00:36:03;84.17;;;12.93;;
20497;SDS011;10407;53.238;10.448;2023-04-29T00:38:31;85.20;;;13.30;;
20497;SDS011;10407;53.238;10.448;2023-04-29T00:40:59;85.27;;;13.30;;
20497;SDS011;10407;53.238;10.448;2023-04-29T00:43:26;87.93;;;14.73;;
20497;SDS011;10407;53.238;10.448;2023-04-29T00:45:54;83.97;;;13.33;;
20497;SDS011;10407;53.238;10.448;2023-04-29T00:48:22;84.57;;;13.90;;
20497;SDS011;10407;53.238;10.448;2023-04-29T00:50:50;85.60;;;14.03;;
20497;SDS011;10407;53.238;10.448;2023-04-29T00:53:17;85.57;;;14.00;;
20497;SDS011;10407;53.238;10.448;2023-04-29T00:55:45;86.77;;;14.03;;
20497;SDS011;10407;53.238;10.448;2023-04-29T00:58:15;88.20;;;15.03;;
20497;SDS011;10407;53.238;10.448;2023-04-29T01:00:44;87.27;;;15.20;;
20497;SDS011;10407;53.238;10.448;2023-04-29T01:03:14;86.30;;;14.07;;
20497;SDS011;10407;53.238;10.448;2023-04-29T01:05:42;89.20;;;15.20;;
20497;SDS011;10407;53.238;10.448;2023-04-29T01:10:53;86.63;;;12.90;;
20497;SDS011;10407;53.238;10.448;2023-04-29T01:14:08;85.57;;;14.37;;
20497;SDS011;10407;53.238;10.448;2023-04-29T01:16:03;93.67;;;15.80;;
20497;SDS011;10407;53.238;10.448;2023-04-29T01:18:32;86.10;;;14.73;;
20497;SDS011;10407;53.238;10.448;2023-04-29T01:21:04;87.00;;;13.30;;
20497;SDS011;10407;53.238;10.448;2023-04-29T01:23:32;90.00;;;16.23;;
20497;SDS011;10407;53.238;10.448;2023-04-29T01:26:00;90.80;;;15.10;;
20497;SDS011;10407;53.238;10.448;2023-04-29T01:31:18;85.90;;;14.00;;
20497;SDS011;10407;53.238;10.448;2023-04-29T01:36:46;85.87;;;13.77;;
20497;SDS011;10407;53.238;10.448;2023-04-29T01:39:21;89.87;;;14.30;;
20497;SDS011;10407;53.238;10.448;2023-04-29T01:41:58;85.37;;;13.53;;
20497;SDS011;10407;53.238;10.448;2023-04-29T01:44:27;86.67;;;14.80;;
20497;SDS011;10407;53.238;10.448;2023-04-29T01:46:56;87.90;;;14.70;;
20497;SDS011;10407;53.238;10.448;2023-04-29T01:49:27;84.23;;;14.27;;
20497;SDS011;10407;53.238;10.448;2023-04-29T01:51:55;86.07;;;15.53;;
20497;SDS011;10407;53.238;10.448;2023-04-29T01:54:23;91.40;;;14.60;;
20497;SDS011;10407;53.238;10.448;2023-04-29T01:56:51;84.90;;;13.53;;
20497;SDS011;10407;53.238;10.448;2023-04-29T01:59:19;84.80;;;13.60;;
20497;SDS011;10407;53.238;10.448;2023-04-29T02:01:46;86.37;;;14.60;;
20497;SDS011;10407;53.238;10.448;2023-04-29T02:04:14;83.60;;;13.80;;
20497;SDS011;10407;53.238;10.448;2023-04-29T02:06:41;86.17;;;14.43;;
20497;SDS011;10407;53.238;10.448;2023-04-29T02:09:09;86.33;;;14.27;;
20497;SDS011;10407;53.238;10.448;2023-04-29T02:11:37;83.47;;;13.23;;
20497;SDS011;10407;53.238;10.448;2023-04-29T02:14:04;86.40;;;13.83;;
20497;SDS011;10407;53.238;10.448;2023-04-29T02:16:32;88.37;;;13.90;;
20497;SDS011;10407;53.238;10.448;2023-04-29T02:18:59;84.80;;;13.90;;
20497;SDS011;10407;53.238;10.448;2023-04-29T02:21:27;89.27;;;13.90;;
20497;SDS011;10407;53.238;10.448;2023-04-29T02:23:54;84.97;;;13.73;;
20497;SDS011;10407;53.238;10.448;2023-04-29T02:26:22;85.47;;;13.70;;
20497;SDS011;10407;53.238;10.448;2023-04-29T02:28:50;84.30;;;13.50;;
20497;SDS011;10407;53.238;10.448;2023-04-29T02:31:17;84.97;;;14.07;;
20497;SDS011;10407;53.238;10.448;2023-04-29T02:33:45;85.27;;;14.30;;
20497;SDS011;10407;53.238;10.448;2023-04-29T02:36:12;83.53;;;12.27;;
20497;SDS011;10407;53.238;10.448;2023-04-29T02:38:40;82.80;;;12.73;;
20497;SDS011;10407;53.238;10.448;2023-04-29T02:41:07;84.30;;;13.43;;
20497;SDS011;10407;53.238;10.448;2023-04-29T02:43:35;83.37;;;12.17;;
20497;SDS011;10407;53.238;10.448;2023-04-29T02:46:02;84.00;;;13.70;;
20497;SDS011;10407;53.238;10.448;2023-04-29T02:48:30;83.57;;;12.70;;
20497;SDS011;10407;53.238;10.448;2023-04-29T02:50:57;86.47;;;13.00;;
20497;SDS011;10407;53.238;10.448;2023-04-29T02:53:25;82.50;;;11.87;;
20497;SDS011;10407;53.238;10.448;2023-04-29T02:55:52;83.27;;;13.00;;
20497;SDS011;10407;53.238;10.448;2023-04-29T02:58:20;82.67;;;12.77;;
20497;SDS011;10407;53.238;10.448;2023-04-29T03:00:48;84.17;;;13.73;;
20497;SDS011;10407;53.238;10.448;2023-04-29T03:03:15;86.57;;;14.03;;
20497;SDS011;10407;53.238;10.448;2023-04-29T03:05:43;83.80;;;12.93;;
20497;SDS011;10407;53.238;10.448;2023-04-29T03:08:10;81.57;;;11.60;;
20497;SDS011;10407;53.238;10.448;2023-04-29T03:10:38;82.97;;;11.90;;
20497;SDS011;10407;53.238;10.448;2023-04-29T03:13:05;85.50;;;13.13;;
20497;SDS011;10407;53.238;10.448;2023-04-29T03:15:33;83.17;;;13.23;;
20497;SDS011;10407;53.238;10.448;2023-04-29T03:18:01;83.83;;;12.80;;
20497;SDS011;10407;53.238;10.448;2023-04-29T03:20:29;84.13;;;13.03;;
20497;SDS011;10407;53.238;10.448;2023-04-29T03:22:57;84.67;;;12.60;;
20497;SDS011;10407;53.238;10.448;2023-04-29T03:25:25;85.50;;;13.93;;
20497;SDS011;10407;53.238;10.448;2023-04-29T03:27:53;87.10;;;13.57;;
20497;SDS011;10407;53.238;10.448;2023-04-29T03:30:20;82.77;;;12.23;;
20497;SDS011;10407;53.238;10.448;2023-04-29T03:32:48;86.87;;;13.67;;
20497;SDS011;10407;53.238;10.448;2023-04-29T03:35:16;85.57;;;13.17;;
20497;SDS011;10407;53.238;10.448;2023-04-29T03:37:43;88.20;;;12.60;;
20497;SDS011;10407;53.238;10.448;2023-04-29T03:40:11;83.47;;;12.90;;
20497;SDS011;10407;53.238;10.448;2023-04-29T03:42:39;83.27;;;13.00;;
20497;SDS011;10407;53.238;10.448;2023-04-29T03:45:07;88.97;;;14.50;;
20497;SDS011;10407;53.238;10.448;2023-04-29T03:47:37;84.87;;;12.27;;
20497;SDS011;10407;53.238;10.448;2023-04-29T03:50:05;84.33;;;12.20;;
20497;SDS011;10407;53.238;10.448;2023-04-29T03:52:34;86.60;;;13.47;;
20497;SDS011;10407;53.238;10.448;2023-04-29T03:55:02;85.63;;;15.33;;
20497;SDS011;10407;53.238;10.448;2023-04-29T03:57:30;84.97;;;13.97;;
20497;SDS011;10407;53.238;10.448;2023-04-29T03:59:58;89.50;;;13.60;;
20497;SDS011;10407;53.238;10.448;2023-04-29T04:02:26;88.87;;;14.40;;
20497;SDS011;10407;53.238;10.448;2023-04-29T04:04:53;85.97;;;13.43;;
20497;SDS011;10407;53.238;10.448;2023-04-29T04:07:21;84.70;;;13.43;;
20497;SDS011;10407;53.238;10.448;2023-04-29T04:09:48;83.67;;;13.37;;
20497;SDS011;10407;53.238;10.448;2023-04-29T04:12:16;88.87;;;15.80;;
20497;SDS011;10407;53.238;10.448;2023-04-29T04:14:43;85.73;;;13.63;;
20497;SDS011;10407;53.238;10.448;2023-04-29T04:17:11;87.10;;;14.27;;
20497;SDS011;10407;53.238;10.448;2023-04-29T04:19:38;87.23;;;14.13;;
20497;SDS011;10407;53.238;10.448;2023-04-29T04:22:06;87.50;;;14.10;;
20497;SDS011;10407;53.238;10.448;2023-04-29T04:24:33;90.57;;;15.17;;
20497;SDS011;10407;53.238;10.448;2023-04-29T04:27:01;87.00;;;13.33;;
20497;SDS011;10407;53.238;10.448;2023-04-29T04:29:28;87.57;;;14.73;;
20497;SDS011;10407;53.238;10.448;2023-04-29T04:31:56;88.90;;;16.10;;
20497;SDS011;10407;53.238;10.448;2023-04-29T04:34:23;87.13;;;15.90;;
20497;SDS011;10407;53.238;10.448;2023-04-29T04:36:51;86.90;;;13.73;;
20497;SDS011;10407;53.238;10.448;2023-04-29T04:39:19;93.70;;;15.60;;
20497;SDS011;10407;53.238;10.448;2023-04-29T04:41:47;87.00;;;14.67;;
20497;SDS011;10407;53.238;10.448;2023-04-29T04:44:14;93.57;;;16.90;;
20497;SDS011;10407;53.238;10.448;2023-04-29T04:46:42;87.30;;;15.60;;
20497;SDS011;10407;53.238;10.448;2023-04-29T04:49:09;87.77;;;15.60;;
20497;SDS011;10407;53.238;10.448;2023-04-29T04:51:37;87.97;;;15.40;;
20497;SDS011;10407;53.238;10.448;2023-04-29T04:54:04;89.17;;;15.60;;
20497;SDS011;10407;53.238;10.448;2023-04-29T04:56:31;88.20;;;15.67;;
20497;SDS011;10407;53.238;10.448;2023-04-29T04:59:01;92.60;;;16.30;;
20497;SDS011;10407;53.238;10.448;2023-04-29T05:01:29;95.50;;;15.87;;
20497;SDS011;10407;53.238;10.448;2023-04-29T05:03:56;89.57;;;16.20;;
20497;SDS011;10407;53.238;10.448;2023-04-29T05:06:25;87.20;;;15.53;;
20497;SDS011;10407;53.238;10.448;2023-04-29T05:08:52;87.67;;;14.60;;
20497;SDS011;10407;53.238;10.448;2023-04-29T05:11:20;87.53;;;15.27;;
20497;SDS011;10407;53.238;10.448;2023-04-29T05:13:48;88.40;;;14.80;;
20497;SDS011;10407;53.238;10.448;2023-04-29T05:16:16;95.73;;;16.20;;
20497;SDS011;10407;53.238;10.448;2023-04-29T05:18:43;89.57;;;15.60;;
20497;SDS011;10407;53.238;10.448;2023-04-29T05:21:11;87.77;;;14.47;;
20497;SDS011;10407;53.238;10.448;2023-04-29T05:23:39;89.30;;;16.57;;
20497;SDS011;10407;53.238;10.448;2023-04-29T05:26:08;90.07;;;14.67;;
20497;SDS011;10407;53.238;10.448;2023-04-29T05:28:35;95.00;;;16.47;;
20497;SDS011;10407;53.238;10.448;2023-04-29T05:31:03;90.80;;;16.93;;
20497;SDS011;10407;53.238;10.448;2023-04-29T05:33:30;87.80;;;14.60;;
20497;SDS011;10407;53.238;10.448;2023-04-29T05:35:58;92.07;;;17.60;;
20497;SDS011;10407;53.238;10.448;2023-04-29T05:38:26;90.40;;;16.30;;
20497;SDS011;10407;53.238;10.448;2023-04-29T05:40:56;87.70;;;14.60;;
20497;SDS011;10407;53.238;10.448;2023-04-29T05:43:24;90.80;;;16.07;;
20497;SDS011;10407;53.238;10.448;2023-04-29T05:45:52;90.97;;;15.97;;
20497;SDS011;10407;53.238;10.448;2023-04-29T05:48:20;87.43;;;14.73;;
20497;SDS011;10407;53.238;10.448;2023-04-29T05:50:49;92.13;;;16.00;;
20497;SDS011;10407;53.238;10.448;2023-04-29T05:53:18;88.50;;;15.33;;
20497;SDS011;10407;53.238;10.448;2023-04-29T05:55:46;88.63;;;15.30;;
20497;SDS011;10407;53.238;10.448;2023-04-29T05:58:15;87.07;;;14.33;;
20497;SDS011;10407;53.238;10.448;2023-04-29T06:00:43;87.60;;;14.60;;
20497;SDS011;10407;53.238;10.448;2023-04-29T06:03:10;93.20;;;17.10;;
20497;SDS011;10407;53.238;10.448;2023-04-29T06:05:38;92.60;;;15.30;;
20497;SDS011;10407;53.238;10.448;2023-04-29T06:08:06;90.07;;;16.03;;
20497;SDS011;10407;53.238;10.448;2023-04-29T06:10:35;90.33;;;16.03;;
20497;SDS011;10407;53.238;10.448;2023-04-29T06:13:03;90.53;;;16.27;;
20497;SDS011;10407;53.238;10.448;2023-04-29T06:15:30;91.80;;;16.23;;
20497;SDS011;10407;53.238;10.448;2023-04-29T06:17:58;87.57;;;14.20;;
20497;SDS011;10407;53.238;10.448;2023-04-29T06:20:25;89.30;;;14.90;;
20497;SDS011;10407;53.238;10.448;2023-04-29T06:22:53;86.97;;;15.27;;
20497;SDS011;10407;53.238;10.448;2023-04-29T06:25:21;85.47;;;14.10;;
20497;SDS011;10407;53.238;10.448;2023-04-29T06:27:48;92.30;;;14.87;;
20497;SDS011;10407;53.238;10.448;2023-04-29T06:30:16;91.97;;;14.03;;
20497;SDS011;10407;53.238;10.448;2023-04-29T06:32:43;92.60;;;16.30;;
20497;SDS011;10407;53.238;10.448;2023-04-29T06:35:11;88.70;;;16.10;;
20497;SDS011;10407;53.238;10.448;2023-04-29T06:37:38;85.50;;;13.67;;
20497;SDS011;10407;53.238;10.448;2023-04-29T06:40:06;92.70;;;16.33;;
20497;SDS011;10407;53.238;10.448;2023-04-29T06:42:34;87.50;;;15.77;;
20497;SDS011;10407;53.238;10.448;2023-04-29T06:45:02;91.60;;;14.13;;
20497;SDS011;10407;53.238;10.448;2023-04-29T06:47:30;89.33;;;14.33;;
20497;SDS011;10407;53.238;10.448;2023-04-29T06:49:58;87.07;;;13.83;;
20497;SDS011;10407;53.238;10.448;2023-04-29T06:52:25;87.80;;;13.90;;
20497;SDS011;10407;53.238;10.448;2023-04-29T06:54:53;87.10;;;13.90;;
20497;SDS011;10407;53.238;10.448;2023-04-29T06:57:20;93.63;;;14.27;;
20497;SDS011;10407;53.238;10.448;2023-04-29T06:59:48;86.97;;;14.00;;
20497;SDS011;10407;53.238;10.448;2023-04-29T07:02:15;89.20;;;14.67;;
20497;SDS011;10407;53.238;10.448;2023-04-29T07:04:43;87.77;;;12.63;;
20497;SDS011;10407;53.238;10.448;2023-04-29T07:07:10;85.87;;;12.77;;
20497;SDS011;10407;53.238;10.448;2023-04-29T07:09:38;83.70;;;12.40;;
20497;SDS011;10407;53.238;10.448;2023-04-29T07:12:05;85.57;;;13.43;;
20497;SDS011;10407;53.238;10.448;2023-04-29T07:14:33;82.50;;;12.73;;
20497;SDS011;10407;53.238;10.448;2023-04-29T07:17:02;100.73;;;20.30;;
20497;SDS011;10407;53.238;10.448;2023-04-29T07:19:29;88.30;;;12.67;;
20497;SDS011;10407;53.238;10.448;2023-04-29T07:21:57;86.10;;;11.53;;
20497;SDS011;10407;53.238;10.448;2023-04-29T07:24:24;82.10;;;11.00;;
20497;SDS011;10407;53.238;10.448;2023-04-29T07:26:52;85.10;;;10.30;;
20497;SDS011;10407;53.238;10.448;2023-04-29T07:29:19;82.40;;;11.37;;
20497;SDS011;10407;53.238;10.448;2023-04-29T07:31:47;89.07;;;12.30;;
20497;SDS011;10407;53.238;10.448;2023-04-29T07:34:15;86.07;;;12.03;;
20497;SDS011;10407;53.238;10.448;2023-04-29T07:36:42;88.90;;;11.50;;
20497;SDS011;10407;53.238;10.448;2023-04-29T07:39:10;83.70;;;11.10;;
20497;SDS011;10407;53.238;10.448;2023-04-29T07:41:39;91.47;;;11.03;;
20497;SDS011;10407;53.238;10.448;2023-04-29T07:44:06;86.07;;;11.00;;
20497;SDS011;10407;53.238;10.448;2023-04-29T07:46:34;82.20;;;10.60;;
20497;SDS011;10407;53.238;10.448;2023-04-29T07:49:02;85.13;;;9.90;;
20497;SDS011;10407;53.238;10.448;2023-04-29T07:51:31;80.87;;;8.97;;
20497;SDS011;10407;53.238;10.448;2023-04-29T07:53:59;84.43;;;10.07;;
20497;SDS011;10407;53.238;10.448;2023-04-29T07:56:26;83.07;;;10.37;;
20497;SDS011;10407;53.238;10.448;2023-04-29T07:58:54;80.80;;;8.90;;
20497;SDS011;10407;53.238;10.448;2023-04-29T08:01:21;83.37;;;8.40;;
20497;SDS011;10407;53.238;10.448;2023-04-29T08:03:49;86.20;;;9.00;;
20497;SDS011;10407;53.238;10.448;2023-04-29T08:06:16;81.17;;;9.40;;
20497;SDS011;10407;53.238;10.448;2023-04-29T08:08:45;83.37;;;8.53;;
20497;SDS011;10407;53.238;10.448;2023-04-29T08:11:21;79.07;;;8.13;;
20497;SDS011;10407;53.238;10.448;2023-04-29T08:13:46;82.00;;;8.27;;
20497;SDS011;10407;53.238;10.448;2023-04-29T08:16:14;78.90;;;7.93;;
20497;SDS011;10407;53.238;10.448;2023-04-29T08:18:41;80.53;;;8.70;;
20497;SDS011;10407;53.238;10.448;2023-04-29T08:21:09;84.87;;;8.90;;
20497;SDS011;10407;53.238;10.448;2023-04-29T08:23:37;80.03;;;8.70;;
20497;SDS011;10407;53.238;10.448;2023-04-29T08:26:05;81.97;;;7.83;;
20497;SDS011;10407;53.238;10.448;2023-04-29T08:28:33;80.80;;;8.03;;
20497;SDS011;10407;53.238;10.448;2023-04-29T08:31:00;79.30;;;8.13;;
20497;SDS011;10407;53.238;10.448;2023-04-29T08:33:28;83.20;;;9.00;;
20497;SDS011;10407;53.238;10.448;2023-04-29T08:35:56;79.37;;;7.77;;
20497;SDS011;10407;53.238;10.448;2023-04-29T08:38:26;81.37;;;8.00;;
20497;SDS011;10407;53.238;10.448;2023-04-29T08:40:54;82.10;;;8.87;;
20497;SDS011;10407;53.238;10.448;2023-04-29T08:43:22;82.53;;;8.70;;
20497;SDS011;10407;53.238;10.448;2023-04-29T08:45:50;84.07;;;8.27;;
20497;SDS011;10407;53.238;10.448;2023-04-29T08:48:17;79.57;;;8.40;;
20497;SDS011;10407;53.238;10.448;2023-04-29T08:50:45;82.80;;;8.93;;
20497;SDS011;10407;53.238;10.448;2023-04-29T08:53:13;78.50;;;7.57;;
20497;SDS011;10407;53.238;10.448;2023-04-29T08:55:41;83.73;;;8.53;;
20497;SDS011;10407;53.238;10.448;2023-04-29T08:58:12;81.80;;;8.63;;
20497;SDS011;10407;53.238;10.448;2023-04-29T09:00:42;80.43;;;8.87;;
20497;SDS011;10407;53.238;10.448;2023-04-29T09:03:14;82.27;;;8.93;;
20497;SDS011;10407;53.238;10.448;2023-04-29T09:05:52;80.10;;;8.63;;
20497;SDS011;10407;53.238;10.448;2023-04-29T09:08:22;79.20;;;8.63;;
20497;SDS011;10407;53.238;10.448;2023-04-29T09:10:50;83.47;;;10.20;;
20497;SDS011;10407;53.238;10.448;2023-04-29T09:15:54;85.47;;;9.33;;
20497;SDS011;10407;53.238;10.448;2023-04-29T09:21:12;81.00;;;10.03;;
20497;SDS011;10407;53.238;10.448;2023-04-29T09:23:48;82.43;;;9.33;;
20497;SDS011;10407;53.238;10.448;2023-04-29T09:26:18;81.03;;;9.03;;
20497;SDS011;10407;53.238;10.448;2023-04-29T09:28:45;80.00;;;8.13;;
20497;SDS011;10407;53.238;10.448;2023-04-29T09:31:14;79.33;;;8.70;;
20497;SDS011;10407;53.238;10.448;2023-04-29T09:33:50;79.30;;;8.40;;
20497;SDS011;10407;53.238;10.448;2023-04-29T09:39:06;82.63;;;8.53;;
20497;SDS011;10407;53.238;10.448;2023-04-29T09:41:38;78.57;;;7.77;;
20497;SDS011;10407;53.238;10.448;2023-04-29T09:44:10;80.70;;;7.47;;
20497;SDS011;10407;53.238;10.448;2023-04-29T09:46:37;83.20;;;9.30;;
20497;SDS011;10407;53.238;10.448;2023-04-29T09:49:21;81.20;;;8.20;;
20497;SDS011;10407;53.238;10.448;2023-04-29T09:51:56;100.57;;;18.73;;
20497;SDS011;10407;53.238;10.448;2023-04-29T09:54:27;84.27;;;11.57;;
20497;SDS011;10407;53.238;10.448;2023-04-29T09:56:57;161.90;;;47.07;;
20497;SDS011;10407;53.238;10.448;2023-04-29T09:59:28;85.50;;;9.93;;
20497;SDS011;10407;53.238;10.448;2023-04-29T10:01:56;82.47;;;8.73;;
20497;SDS011;10407;53.238;10.448;2023-04-29T10:04:24;96.20;;;13.37;;
20497;SDS011;10407;53.238;10.448;2023-04-29T10:06:53;85.90;;;10.60;;
20497;SDS011;10407;53.238;10.448;2023-04-29T10:09:22;98.33;;;14.37;;
20497;SDS011;10407;53.238;10.448;2023-04-29T10:11:50;81.23;;;8.97;;
20497;SDS011;10407;53.238;10.448;2023-04-29T10:14:24;82.20;;;8.80;;
20497;SDS011;10407;53.238;10.448;2023-04-29T10:16:53;81.97;;;9.10;;
20497;SDS011;10407;53.238;10.448;2023-04-29T10:19:41;82.97;;;8.20;;
20497;SDS011;10407;53.238;10.448;2023-04-29T10:22:16;83.87;;;8.40;;
20497;SDS011;10407;53.238;10.448;2023-04-29T10:24:54;82.77;;;8.40;;
20497;SDS011;10407;53.238;10.448;2023-04-29T10:27:24;81.43;;;8.43;;
20497;SDS011;10407;53.238;10.448;2023-04-29T10:29:53;79.70;;;7.50;;
20497;SDS011;10407;53.238;10.448;2023-04-29T10:32:24;80.07;;;8.00;;
20497;SDS011;10407;53.238;10.448;2023-04-29T10:34:54;78.80;;;7.83;;
20497;SDS011;10407;53.238;10.448;2023-04-29T10:37:24;80.70;;;7.53;;
20497;SDS011;10407;53.238;10.448;2023-04-29T10:39:54;81.20;;;8.53;;
20497;SDS011;10407;53.238;10.448;2023-04-29T10:50:39;83.10;;;8.10;;
20497;SDS011;10407;53.238;10.448;2023-04-29T10:53:15;81.50;;;9.40;;
20497;SDS011;10407;53.238;10.448;2023-04-29T10:55:47;86.67;;;9.60;;
20497;SDS011;10407;53.238;10.448;2023-04-29T10:58:35;80.63;;;8.47;;
20497;SDS011;10407;53.238;10.448;2023-04-29T11:01:04;81.97;;;7.80;;
20497;SDS011;10407;53.238;10.448;2023-04-29T11:09:11;83.37;;;9.00;;
20497;SDS011;10407;53.238;10.448;2023-04-29T11:11:44;81.87;;;8.57;;
20497;SDS011;10407;53.238;10.448;2023-04-29T11:14:20;82.27;;;9.47;;
20497;SDS011;10407;53.238;10.448;2023-04-29T11:16:52;85.03;;;9.77;;
20497;SDS011;10407;53.238;10.448;2023-04-29T11:19:22;83.43;;;9.17;;
20497;SDS011;10407;53.238;10.448;2023-04-29T11:22:08;78.07;;;8.23;;
20497;SDS011;10407;53.238;10.448;2023-04-29T11:25:04;82.13;;;9.93;;
20497;SDS011;10407;53.238;10.448;2023-04-29T11:27:16;82.17;;;7.67;;
20497;SDS011;10407;53.238;10.448;2023-04-29T11:29:45;80.20;;;8.13;;
20497;SDS011;10407;53.238;10.448;2023-04-29T11:32:13;80.67;;;10.10;;
20497;SDS011;10407;53.238;10.448;2023-04-29T11:34:40;80.33;;;8.27;;
20497;SDS011;10407;53.238;10.448;2023-04-29T11:37:08;83.90;;;9.70;;
20497;SDS011;10407;53.238;10.448;2023-04-29T11:39:36;82.70;;;8.87;;
20497;SDS011;10407;53.238;10.448;2023-04-29T11:42:04;78.40;;;8.60;;
20497;SDS011;10407;53.238;10.448;2023-04-29T11:44:33;79.70;;;7.73;;
20497;SDS011;10407;53.238;10.448;2023-04-29T11:47:03;81.70;;;9.03;;
20497;SDS011;10407;53.238;10.448;2023-04-29T11:49:31;81.47;;;8.47;;
20497;SDS011;10407;53.238;10.448;2023-04-29T11:51:59;79.50;;;8.43;;
20497;SDS011;10407;53.238;10.448;2023-04-29T11:54:28;82.67;;;8.70;;
20497;SDS011;10407;53.238;10.448;2023-04-29T11:56:57;80.00;;;8.67;;
20497;SDS011;10407;53.238;10.448;2023-04-29T11:59:24;82.27;;;9.27;;
20497;SDS011;10407;53.238;10.448;2023-04-29T12:01:52;80.77;;;9.77;;
20497;SDS011;10407;53.238;10.448;2023-04-29T12:04:20;81.60;;;8.00;;
20497;SDS011;10407;53.238;10.448;2023-04-29T12:06:50;77.60;;;7.03;;
20497;SDS011;10407;53.238;10.448;2023-04-29T12:09:19;79.20;;;8.07;;
20497;SDS011;10407;53.238;10.448;2023-04-29T12:11:47;83.90;;;8.00;;
20497;SDS011;10407;53.238;10.448;2023-04-29T12:14:20;79.60;;;9.00;;
20497;SDS011;10407;53.238;10.448;2023-04-29T12:16:45;79.50;;;8.43;;
20497;SDS011;10407;53.238;10.448;2023-04-29T12:19:13;77.37;;;7.40;;
20497;SDS011;10407;53.238;10.448;2023-04-29T12:21:47;79.47;;;8.27;;
20497;SDS011;10407;53.238;10.448;2023-04-29T12:24:16;76.93;;;7.57;;
20497;SDS011;10407;53.238;10.448;2023-04-29T12:26:48;79.07;;;7.13;;
20497;SDS011;10407;53.238;10.448;2023-04-29T12:29:15;80.80;;;8.57;;
20497;SDS011;10407;53.238;10.448;2023-04-29T12:31:46;82.07;;;8.10;;
20497;SDS011;10407;53.238;10.448;2023-04-29T12:34:13;82.87;;;7.83;;
20497;SDS011;10407;53.238;10.448;2023-04-29T12:36:41;82.20;;;7.50;;
20497;SDS011;10407;53.238;10.448;2023-04-29T12:39:09;81.17;;;8.40;;
20497;SDS011;10407;53.238;10.448;2023-04-29T12:41:40;84.67;;;9.13;;
20497;SDS011;10407;53.238;10.448;2023-04-29T12:44:08;82.73;;;8.90;;
20497;SDS011;10407;53.238;10.448;2023-04-29T12:46:38;78.67;;;7.83;;
20497;SDS011;10407;53.238;10.448;2023-04-29T12:49:07;81.47;;;8.23;;
20497;SDS011;10407;53.238;10.448;2023-04-29T12:51:34;77.80;;;8.00;;
20497;SDS011;10407;53.238;10.448;2023-04-29T12:54:02;79.90;;;7.80;;
20497;SDS011;10407;53.238;10.448;2023-04-29T12:56:32;80.90;;;7.87;;
20497;SDS011;10407;53.238;10.448;2023-04-29T12:59:06;82.67;;;9.40;;
20497;SDS011;10407;53.238;10.448;2023-04-29T13:01:37;84.07;;;8.63;;
20497;SDS011;10407;53.238;10.448;2023-04-29T13:04:05;80.83;;;8.53;;
20497;SDS011;10407;53.238;10.448;2023-04-29T13:06:34;82.63;;;8.60;;
20497;SDS011;10407;53.238;10.448;2023-04-29T13:09:08;77.40;;;7.53;;
20497;SDS011;10407;53.238;10.448;2023-04-29T13:11:51;82.63;;;9.40;;
20497;SDS011;10407;53.238;10.448;2023-04-29T13:14:19;80.80;;;8.70;;
20497;SDS011;10407;53.238;10.448;2023-04-29T13:16:47;84.20;;;10.13;;
20497;SDS011;10407;53.238;10.448;2023-04-29T13:19:15;83.20;;;10.13;;
20497;SDS011;10407;53.238;10.448;2023-04-29T13:21:42;80.47;;;9.10;;
20497;SDS011;10407;53.238;10.448;2023-04-29T13:24:11;84.23;;;9.57;;
20497;SDS011;10407;53.238;10.448;2023-04-29T13:26:38;81.20;;;9.03;;
20497;SDS011;10407;53.238;10.448;2023-04-29T13:29:06;79.50;;;9.17;;
20497;SDS011;10407;53.238;10.448;2023-04-29T13:31:33;79.77;;;8.53;;
20497;SDS011;10407;53.238;10.448;2023-04-29T13:34:01;79.40;;;8.77;;
20497;SDS011;10407;53.238;10.448;2023-04-29T13:36:28;80.07;;;9.23;;
20497;SDS011;10407;53.238;10.448;2023-04-29T13:38:56;79.67;;;8.40;;
20497;SDS011;10407;53.238;10.448;2023-04-29T13:41:23;78.83;;;8.80;;
20497;SDS011;10407;53.238;10.448;2023-04-29T13:43:52;83.87;;;8.97;;
20497;SDS011;10407;53.238;10.448;2023-04-29T13:46:20;83.17;;;9.17;;
20497;SDS011;10407;53.238;10.448;2023-04-29T13:48:47;79.47;;;9.60;;
20497;SDS011;10407;53.238;10.448;2023-04-29T13:51:15;77.90;;;8.20;;
20497;SDS011;10407;53.238;10.448;2023-04-29T13:53:42;78.83;;;8.33;;
20497;SDS011;10407;53.238;10.448;2023-04-29T13:56:10;82.37;;;9.70;;
20497;SDS011;10407;53.238;10.448;2023-04-29T13:58:37;78.47;;;7.87;;
20497;SDS011;10407;53.238;10.448;2023-04-29T14:01:06;79.80;;;7.77;;
20497;SDS011;10407;53.238;10.448;2023-04-29T14:03:34;82.67;;;8.47;;
20497;SDS011;10407;53.238;10.448;2023-04-29T14:06:02;80.37;;;8.50;;
20497;SDS011;10407;53.238;10.448;2023-04-29T14:08:29;82.73;;;8.20;;
20497;SDS011;10407;53.238;10.448;2023-04-29T14:10:57;78.20;;;7.23;;
20497;SDS011;10407;53.238;10.448;2023-04-29T14:13:24;78.37;;;7.37;;
20497;SDS011;10407;53.238;10.448;2023-04-29T14:15:52;76.97;;;7.40;;
20497;SDS011;10407;53.238;10.448;2023-04-29T14:18:21;76.23;;;6.80;;
20497;SDS011;10407;53.238;10.448;2023-04-29T14:20:48;79.07;;;7.50;;
20497;SDS011;10407;53.238;10.448;2023-04-29T14:23:16;80.63;;;7.90;;
20497;SDS011;10407;53.238;10.448;2023-04-29T14:25:44;80.70;;;6.83;;
20497;SDS011;10407;53.238;10.448;2023-04-29T14:28:12;77.97;;;7.50;;
20497;SDS011;10407;53.238;10.448;2023-04-29T14:30:39;76.80;;;6.20;;
20497;SDS011;10407;53.238;10.448;2023-04-29T14:33:08;78.77;;;7.33;;
20497;SDS011;10407;53.238;10.448;2023-04-29T14:35:36;80.10;;;7.00;;
20497;SDS011;10407;53.238;10.448;2023-04-29T14:38:03;79.13;;;7.20;;
20497;SDS011;10407;53.238;10.448;2023-04-29T14:40:31;76.90;;;6.40;;
20497;SDS011;10407;53.238;10.448;2023-04-29T14:42:58;77.10;;;7.43;;
20497;SDS011;10407;53.238;10.448;2023-04-29T14:45:26;78.50;;;6.37;;
20497;SDS011;10407;53.238;10.448;2023-04-29T14:47:54;78.30;;;6.30;;
20497;SDS011;10407;53.238;10.448;2023-04-29T14:50:21;76.00;;;6.03;;
20497;SDS011;10407;53.238;10.448;2023-04-29T14:52:50;80.00;;;7.30;;